sensor_id;sensor_type;location;lat;lon;timestamp;pressure;altitude;pressure_sealevel;temperature;humidity
10978;BME280;5542;48.272;10.794;2022-07-06T00:01:48;96230.09;;;19.07;50.15
10978;BME280;5542;48.272;10.794;2022-07-06T00:04:16;96225.84;;;19.06;50.38
10978;BME280;5542;48.272;10.794;2022-07-06T00:06:43;96231.97;;;19.07;50.57
10978;BME280;5542;48.272;10.794;2022-07-06T00:09:09;96228.50;;;19.06;50.89
10978;BME280;5542;48.272;10.794;2022-07-06T00:11:36;96230.38;;;19.06;51.06
10978;BME280;5542;48.272;10.794;2022-07-06T00:14:05;96223.69;;;19.03;51.06
10978;BME280;5542;48.272;10.794;2022-07-06T00:16:31;96225.84;;;19.01;51.26
10978;BME280;5542;48.272;10.794;2022-07-06T00:18:58;96228.50;;;19.01;51.26
10978;BME280;5542;48.272;10.794;2022-07-06T00:21:25;96225.06;;;18.96;51.42
10978;BME280;5542;48.272;10.794;2022-07-06T00:23:51;96225.06;;;18.96;51.61
10978;BME280;5542;48.272;10.794;2022-07-06T00:26:18;96227.16;;;18.99;51.43
10978;BME280;5542;48.272;10.794;2022-07-06T00:28:45;96227.47;;;18.92;51.76
10978;BME280;5542;48.272;10.794;2022-07-06T00:31:13;96228.56;;;18.81;52.32
10978;BME280;5542;48.272;10.794;2022-07-06T00:33:39;96227.50;;;18.72;52.80
10978;BME280;5542;48.272;10.794;2022-07-06T00:36:06;96224.25;;;18.64;53.63
10978;BME280;5542;48.272;10.794;2022-07-06T00:38:33;96216.81;;;18.56;53.94
10978;BME280;5542;48.272;10.794;2022-07-06T00:40:59;96218.66;;;18.56;54.11
10978;BME280;5542;48.272;10.794;2022-07-06T00:43:26;96214.16;;;18.56;54.31
10978;BME280;5542;48.272;10.794;2022-07-06T00:45:53;96215.75;;;18.57;54.38
10978;BME280;5542;48.272;10.794;2022-07-06T00:48:21;96217.84;;;18.60;54.56
10978;BME280;5542;48.272;10.794;2022-07-06T00:50:47;96211.47;;;18.56;54.91
10978;BME280;5542;48.272;10.794;2022-07-06T00:53:14;96210.41;;;18.52;55.09
10978;BME280;5542;48.272;10.794;2022-07-06T00:55:41;96214.94;;;18.57;55.22
10978;BME280;5542;48.272;10.794;2022-07-06T00:58:09;96204.53;;;18.55;55.17
10978;BME280;5542;48.272;10.794;2022-07-06T01:00:36;96208.28;;;18.49;55.38
10978;BME280;5542;48.272;10.794;2022-07-06T01:03:03;96200.00;;;18.46;55.72
10978;BME280;5542;48.272;10.794;2022-07-06T01:05:31;96205.88;;;18.48;56.08
10978;BME280;5542;48.272;10.794;2022-07-06T01:07:57;96205.88;;;18.48;56.85
10978;BME280;5542;48.272;10.794;2022-07-06T01:10:26;96196.81;;;18.33;57.15
10978;BME280;5542;48.272;10.794;2022-07-06T01:12:53;96200.28;;;18.29;57.22
10978;BME280;5542;48.272;10.794;2022-07-06T01:15:22;96201.09;;;18.29;57.46
10978;BME280;5542;48.272;10.794;2022-07-06T01:17:50;96192.53;;;18.22;57.57
10978;BME280;5542;48.272;10.794;2022-07-06T01:20:19;96194.97;;;18.19;57.63
10978;BME280;5542;48.272;10.794;2022-07-06T01:22:47;96197.06;;;18.16;57.60
10978;BME280;5542;48.272;10.794;2022-07-06T01:25:15;96194.91;;;18.13;57.64
10978;BME280;5542;48.272;10.794;2022-07-06T01:27:42;96188.56;;;18.14;57.50
10978;BME280;5542;48.272;10.794;2022-07-06T01:30:12;96192.81;;;18.10;57.64
10978;BME280;5542;48.272;10.794;2022-07-06T01:32:40;96193.88;;;18.09;57.54
10978;BME280;5542;48.272;10.794;2022-07-06T01:35:08;96190.13;;;18.05;57.69
10978;BME280;5542;48.272;10.794;2022-07-06T01:37:37;96189.06;;;18.01;57.94
10978;BME280;5542;48.272;10.794;2022-07-06T01:40:05;96182.69;;;18.02;58.06
10978;BME280;5542;48.272;10.794;2022-07-06T01:42:33;96190.66;;;18.02;57.82
10978;BME280;5542;48.272;10.794;2022-07-06T01:45:00;96193.59;;;17.96;57.97
10978;BME280;5542;48.272;10.794;2022-07-06T01:47:27;96193.03;;;17.88;57.96
10978;BME280;5542;48.272;10.794;2022-07-06T01:49:54;96194.59;;;17.84;58.25
10978;BME280;5542;48.272;10.794;2022-07-06T01:52:20;96193.28;;;17.77;58.56
10978;BME280;5542;48.272;10.794;2022-07-06T01:54:48;96188.75;;;17.77;58.66
10978;BME280;5542;48.272;10.794;2022-07-06T01:57:15;96186.59;;;17.74;58.83
10978;BME280;5542;48.272;10.794;2022-07-06T01:59:42;96183.44;;;17.77;58.55
10978;BME280;5542;48.272;10.794;2022-07-06T02:02:09;96181.84;;;17.76;58.28
10978;BME280;5542;48.272;10.794;2022-07-06T02:04:36;96182.06;;;17.75;58.34
10978;BME280;5542;48.272;10.794;2022-07-06T02:07:03;96175.16;;;17.74;58.29
10978;BME280;5542;48.272;10.794;2022-07-06T02:09:29;96169.84;;;17.74;58.27
10978;BME280;5542;48.272;10.794;2022-07-06T02:11:58;96179.19;;;17.76;58.22
10978;BME280;5542;48.272;10.794;2022-07-06T02:14:24;96183.16;;;17.74;58.20
10978;BME280;5542;48.272;10.794;2022-07-06T02:16:57;96180.44;;;17.69;58.28
10978;BME280;5542;48.272;10.794;2022-07-06T02:19:24;96182.03;;;17.70;58.12
10978;BME280;5542;48.272;10.794;2022-07-06T02:21:50;96187.34;;;17.70;58.07
10978;BME280;5542;48.272;10.794;2022-07-06T02:24:17;96186.56;;;17.69;58.05
10978;BME280;5542;48.272;10.794;2022-07-06T02:26:44;96185.75;;;17.69;58.12
10978;BME280;5542;48.272;10.794;2022-07-06T02:29:12;96187.91;;;17.66;58.23
10978;BME280;5542;48.272;10.794;2022-07-06T02:31:38;96181.78;;;17.66;58.52
10978;BME280;5542;48.272;10.794;2022-07-06T02:34:05;96183.38;;;17.67;58.55
10978;BME280;5542;48.272;10.794;2022-07-06T02:36:32;96174.84;;;17.65;58.42
10978;BME280;5542;48.272;10.794;2022-07-06T02:38:59;96173.81;;;17.66;58.42
10978;BME280;5542;48.272;10.794;2022-07-06T02:41:26;96171.38;;;17.59;58.63
10978;BME280;5542;48.272;10.794;2022-07-06T02:43:52;96173.75;;;17.56;58.72
10978;BME280;5542;48.272;10.794;2022-07-06T02:46:20;96174.03;;;17.54;58.90
10978;BME280;5542;48.272;10.794;2022-07-06T02:48:47;96171.06;;;17.51;58.91
10978;BME280;5542;48.272;10.794;2022-07-06T02:51:14;96183.28;;;17.47;59.15
10978;BME280;5542;48.272;10.794;2022-07-06T02:53:41;96184.34;;;17.46;59.45
10978;BME280;5542;48.272;10.794;2022-07-06T02:56:07;96187.25;;;17.39;59.52
10978;BME280;5542;48.272;10.794;2022-07-06T02:58:34;96185.41;;;17.39;59.77
10978;BME280;5542;48.272;10.794;2022-07-06T03:01:01;96188.84;;;17.40;59.76
10978;BME280;5542;48.272;10.794;2022-07-06T03:03:29;96196.31;;;17.43;59.61
10978;BME280;5542;48.272;10.794;2022-07-06T03:05:55;96194.41;;;17.33;59.86
10978;BME280;5542;48.272;10.794;2022-07-06T03:08:22;96198.38;;;17.31;60.13
10978;BME280;5542;48.272;10.794;2022-07-06T03:10:49;96198.38;;;17.26;60.17
10978;BME280;5542;48.272;10.794;2022-07-06T03:13:15;96205.22;;;17.17;60.42
10978;BME280;5542;48.272;10.794;2022-07-06T03:15:42;96206.56;;;17.14;60.96
10978;BME280;5542;48.272;10.794;2022-07-06T03:18:09;96215.31;;;17.09;61.20
10978;BME280;5542;48.272;10.794;2022-07-06T03:20:37;96207.31;;;17.04;61.24
10978;BME280;5542;48.272;10.794;2022-07-06T03:23:04;96209.41;;;17.02;61.67
10978;BME280;5542;48.272;10.794;2022-07-06T03:25:30;96216.56;;;17.02;61.78
10978;BME280;5542;48.272;10.794;2022-07-06T03:27:58;96218.69;;;17.00;61.66
10978;BME280;5542;48.272;10.794;2022-07-06T03:30:24;96224.50;;;16.97;61.86
10978;BME280;5542;48.272;10.794;2022-07-06T03:32:51;96219.47;;;16.95;61.93
10978;BME280;5542;48.272;10.794;2022-07-06T03:35:18;96223.13;;;16.89;62.17
10978;BME280;5542;48.272;10.794;2022-07-06T03:37:46;96225.53;;;16.91;62.29
10978;BME280;5542;48.272;10.794;2022-07-06T03:40:13;96225.75;;;16.84;62.47
10978;BME280;5542;48.272;10.794;2022-07-06T03:42:40;96223.03;;;16.74;62.93
10978;BME280;5542;48.272;10.794;2022-07-06T03:45:08;96223.56;;;16.76;63.20
10978;BME280;5542;48.272;10.794;2022-07-06T03:47:35;96226.78;;;16.78;63.30
10978;BME280;5542;48.272;10.794;2022-07-06T03:50:02;96225.72;;;16.79;63.51
10978;BME280;5542;48.272;10.794;2022-07-06T03:52:29;96223.03;;;16.74;63.97
10978;BME280;5542;48.272;10.794;2022-07-06T03:54:57;96224.03;;;16.68;64.39
10978;BME280;5542;48.272;10.794;2022-07-06T03:57:23;96223.47;;;16.65;64.53
10978;BME280;5542;48.272;10.794;2022-07-06T03:59:51;96225.63;;;16.69;64.47
10978;BME280;5542;48.272;10.794;2022-07-06T04:02:18;96223.03;;;16.74;64.59
10978;BME280;5542;48.272;10.794;2022-07-06T04:04:44;96225.41;;;16.75;64.49
10978;BME280;5542;48.272;10.794;2022-07-06T04:07:11;96227.31;;;16.80;64.62
10978;BME280;5542;48.272;10.794;2022-07-06T04:09:38;96235.56;;;16.83;64.47
10978;BME280;5542;48.272;10.794;2022-07-06T04:12:06;96233.47;;;16.85;64.39
10978;BME280;5542;48.272;10.794;2022-07-06T04:14:33;96233.69;;;16.79;64.60
10978;BME280;5542;48.272;10.794;2022-07-06T04:17:00;96246.16;;;16.78;64.63
10978;BME280;5542;48.272;10.794;2022-07-06T04:19:47;96240.84;;;16.78;64.75
10978;BME280;5542;48.272;10.794;2022-07-06T04:22:14;96240.59;;;16.80;64.68
10978;BME280;5542;48.272;10.794;2022-07-06T04:24:41;96245.09;;;16.79;64.88
10978;BME280;5542;48.272;10.794;2022-07-06T04:27:09;96240.84;;;16.78;64.97
10978;BME280;5542;48.272;10.794;2022-07-06T04:29:36;96244.56;;;16.77;64.96
10978;BME280;5542;48.272;10.794;2022-07-06T04:32:03;96248.00;;;16.73;64.98
10978;BME280;5542;48.272;10.794;2022-07-06T04:34:30;96251.44;;;16.73;65.02
10978;BME280;5542;48.272;10.794;2022-07-06T04:37:00;96254.41;;;16.77;64.98
10978;BME280;5542;48.272;10.794;2022-07-06T04:39:26;96253.59;;;16.76;64.73
10978;BME280;5542;48.272;10.794;2022-07-06T04:41:56;96251.72;;;16.72;64.76
10978;BME280;5542;48.272;10.794;2022-07-06T04:44:24;96254.09;;;16.73;64.47
10978;BME280;5542;48.272;10.794;2022-07-06T04:46:50;96254.28;;;16.67;64.53
10978;BME280;5542;48.272;10.794;2022-07-06T04:49:17;96255.28;;;16.60;64.87
10978;BME280;5542;48.272;10.794;2022-07-06T04:51:43;96250.25;;;16.59;65.03
10978;BME280;5542;48.272;10.794;2022-07-06T04:54:10;96256.88;;;16.61;64.75
10978;BME280;5542;48.272;10.794;2022-07-06T04:56:37;96259.03;;;16.64;64.98
10978;BME280;5542;48.272;10.794;2022-07-06T04:59:03;96252.66;;;16.65;64.89
10978;BME280;5542;48.272;10.794;2022-07-06T05:01:31;96261.81;;;16.75;64.29
10978;BME280;5542;48.272;10.794;2022-07-06T05:03:57;96255.50;;;16.81;64.32
10978;BME280;5542;48.272;10.794;2022-07-06T05:06:24;96258.47;;;16.89;64.13
10978;BME280;5542;48.272;10.794;2022-07-06T05:08:51;96257.72;;;16.99;63.12
10978;BME280;5542;48.272;10.794;2022-07-06T05:11:17;96254.56;;;17.02;62.67
10978;BME280;5542;48.272;10.794;2022-07-06T05:13:44;96257.25;;;17.07;62.57
10978;BME280;5542;48.272;10.794;2022-07-06T05:16:10;96262.31;;;17.09;62.26
10978;BME280;5542;48.272;10.794;2022-07-06T05:18:38;96266.84;;;17.13;62.33
10978;BME280;5542;48.272;10.794;2022-07-06T05:21:05;96267.94;;;17.18;61.99
10978;BME280;5542;48.272;10.794;2022-07-06T05:23:31;96266.41;;;17.27;61.74
10978;BME280;5542;48.272;10.794;2022-07-06T05:25:58;96270.75;;;17.38;61.50
10978;BME280;5542;48.272;10.794;2022-07-06T05:28:24;96269.19;;;17.47;60.60
10978;BME280;5542;48.272;10.794;2022-07-06T05:30:51;96277.47;;;17.56;60.12
10978;BME280;5542;48.272;10.794;2022-07-06T05:33:17;96277.53;;;17.66;59.81
10978;BME280;5542;48.272;10.794;2022-07-06T05:35:45;96282.13;;;17.76;58.85
10978;BME280;5542;48.272;10.794;2022-07-06T05:38:12;96276.03;;;17.80;59.12
10978;BME280;5542;48.272;10.794;2022-07-06T05:40:39;96278.19;;;17.94;56.67
10978;BME280;5542;48.272;10.794;2022-07-06T05:43:05;96289.34;;;17.85;56.73
10978;BME280;5542;48.272;10.794;2022-07-06T05:45:32;96289.63;;;17.94;56.04
10978;BME280;5542;48.272;10.794;2022-07-06T05:47:58;96282.75;;;18.03;56.09
10978;BME280;5542;48.272;10.794;2022-07-06T05:50:43;96277.44;;;18.13;55.75
10978;BME280;5542;48.272;10.794;2022-07-06T05:53:11;96287.56;;;18.16;55.50
10978;BME280;5542;48.272;10.794;2022-07-06T05:55:37;96288.66;;;18.21;55.43
10978;BME280;5542;48.272;10.794;2022-07-06T05:58:04;96281.25;;;18.48;53.32
10978;BME280;5542;48.272;10.794;2022-07-06T06:00:30;96285.22;;;18.51;52.68
10978;BME280;5542;48.272;10.794;2022-07-06T06:02:58;96283.13;;;18.48;53.48
10978;BME280;5542;48.272;10.794;2022-07-06T06:05:25;96290.03;;;18.54;53.04
10978;BME280;5542;48.272;10.794;2022-07-06T06:07:52;96290.03;;;18.49;53.45
10978;BME280;5542;48.272;10.794;2022-07-06T06:10:20;96299.63;;;18.55;53.94
10978;BME280;5542;48.272;10.794;2022-07-06T06:12:48;96291.94;;;18.84;53.77
10978;BME280;5542;48.272;10.794;2022-07-06T06:15:15;96298.34;;;18.78;54.17
10978;BME280;5542;48.272;10.794;2022-07-06T06:17:42;96297.84;;;18.81;54.36
10978;BME280;5542;48.272;10.794;2022-07-06T06:20:10;96300.75;;;18.84;54.04
10978;BME280;5542;48.272;10.794;2022-07-06T06:22:45;96299.41;;;18.92;53.54
10978;BME280;5542;48.272;10.794;2022-07-06T06:25:12;96290.91;;;19.00;53.46
10978;BME280;5542;48.272;10.794;2022-07-06T06:27:40;96293.28;;;19.12;53.16
10978;BME280;5542;48.272;10.794;2022-07-06T06:30:08;96287.94;;;19.17;52.77
10978;BME280;5542;48.272;10.794;2022-07-06T06:32:34;96292.72;;;19.35;51.57
10978;BME280;5542;48.272;10.794;2022-07-06T06:35:01;96293.50;;;19.36;51.13
10978;BME280;5542;48.272;10.794;2022-07-06T06:37:27;96288.44;;;19.39;51.71
10978;BME280;5542;48.272;10.794;2022-07-06T06:39:54;96286.78;;;19.59;51.33
10978;BME280;5542;48.272;10.794;2022-07-06T06:42:21;96287.00;;;19.78;50.69
10978;BME280;5542;48.272;10.794;2022-07-06T06:44:49;96286.34;;;20.11;50.70
10978;BME280;5542;48.272;10.794;2022-07-06T06:47:15;96287.84;;;20.33;51.44
10978;BME280;5542;48.272;10.794;2022-07-06T06:49:42;96285.31;;;20.57;51.04
10978;BME280;5542;48.272;10.794;2022-07-06T06:52:08;96284.38;;;20.71;49.02
10978;BME280;5542;48.272;10.794;2022-07-06T06:54:35;96288.09;;;20.76;49.24
10978;BME280;5542;48.272;10.794;2022-07-06T06:57:02;96301.50;;;21.05;49.63
10978;BME280;5542;48.272;10.794;2022-07-06T06:59:28;96294.38;;;21.24;48.70
10978;BME280;5542;48.272;10.794;2022-07-06T07:01:56;96296.88;;;21.68;51.08
10978;BME280;5542;48.272;10.794;2022-07-06T07:04:23;96293.78;;;22.04;48.75
10978;BME280;5542;48.272;10.794;2022-07-06T07:06:49;96288.50;;;22.23;46.31
10978;BME280;5542;48.272;10.794;2022-07-06T07:09:16;96295.53;;;22.38;47.28
10978;BME280;5542;48.272;10.794;2022-07-06T07:11:42;96286.00;;;22.64;45.69
10978;BME280;5542;48.272;10.794;2022-07-06T07:14:09;96293.16;;;22.88;47.32
10978;BME280;5542;48.272;10.794;2022-07-06T07:16:36;96275.88;;;23.13;45.92
10978;BME280;5542;48.272;10.794;2022-07-06T07:19:04;96278.03;;;23.57;42.04
10978;BME280;5542;48.272;10.794;2022-07-06T07:21:30;96284.88;;;23.63;44.50
10978;BME280;5542;48.272;10.794;2022-07-06T07:23:57;96283.81;;;23.92;43.55
10978;BME280;5542;48.272;10.794;2022-07-06T07:26:23;96282.31;;;24.13;41.56
10978;BME280;5542;48.272;10.794;2022-07-06T07:28:50;96274.31;;;24.36;40.10
10978;BME280;5542;48.272;10.794;2022-07-06T07:31:16;96285.69;;;24.69;42.59
10978;BME280;5542;48.272;10.794;2022-07-06T07:33:43;96279.41;;;25.18;40.51
10978;BME280;5542;48.272;10.794;2022-07-06T07:36:11;96274.59;;;25.38;39.09
10978;BME280;5542;48.272;10.794;2022-07-06T07:38:37;96276.59;;;25.63;38.06
10978;BME280;5542;48.272;10.794;2022-07-06T07:41:04;96276.44;;;25.68;38.27
10978;BME280;5542;48.272;10.794;2022-07-06T07:43:31;96278.84;;;25.39;37.00
10978;BME280;5542;48.272;10.794;2022-07-06T07:45:58;96280.22;;;25.05;40.74
10978;BME280;5542;48.272;10.794;2022-07-06T07:48:24;96282.09;;;25.18;39.09
10978;BME280;5542;48.272;10.794;2022-07-06T07:50:51;96278.50;;;25.63;38.53
10978;BME280;5542;48.272;10.794;2022-07-06T07:53:19;96265.94;;;25.89;35.75
10978;BME280;5542;48.272;10.794;2022-07-06T07:55:45;96274.69;;;26.03;37.38
10978;BME280;5542;48.272;10.794;2022-07-06T07:58:12;96274.91;;;26.42;38.59
10978;BME280;5542;48.272;10.794;2022-07-06T08:00:39;96270.97;;;26.83;36.35
10978;BME280;5542;48.272;10.794;2022-07-06T08:03:05;96275.22;;;27.18;36.95
10978;BME280;5542;48.272;10.794;2022-07-06T08:05:32;96270.03;;;27.51;35.51
10978;BME280;5542;48.272;10.794;2022-07-06T08:07:58;96273.16;;;27.62;37.26
10978;BME280;5542;48.272;10.794;2022-07-06T08:10:26;96278.22;;;28.11;35.75
10978;BME280;5542;48.272;10.794;2022-07-06T08:12:53;96259.13;;;28.37;30.90
10978;BME280;5542;48.272;10.794;2022-07-06T08:15:19;96262.41;;;28.21;33.35
10978;BME280;5542;48.272;10.794;2022-07-06T08:17:46;96261.50;;;28.38;32.45
10978;BME280;5542;48.272;10.794;2022-07-06T08:20:12;96263.59;;;28.32;32.67
10978;BME280;5542;48.272;10.794;2022-07-06T08:22:39;96258.34;;;28.36;31.76
10978;BME280;5542;48.272;10.794;2022-07-06T08:25:08;96260.53;;;28.13;30.81
10978;BME280;5542;48.272;10.794;2022-07-06T08:27:36;96266.78;;;27.28;32.69
10978;BME280;5542;48.272;10.794;2022-07-06T08:30:04;96271.88;;;26.95;35.56
10978;BME280;5542;48.272;10.794;2022-07-06T08:32:30;96270.31;;;26.86;33.72
10978;BME280;5542;48.272;10.794;2022-07-06T08:34:57;96277.47;;;26.47;35.49
10978;BME280;5542;48.272;10.794;2022-07-06T08:37:23;96272.88;;;26.47;34.17
10978;BME280;5542;48.272;10.794;2022-07-06T08:39:50;96278.00;;;26.00;34.14
10978;BME280;5542;48.272;10.794;2022-07-06T08:42:17;96288.28;;;25.90;36.83
10978;BME280;5542;48.272;10.794;2022-07-06T08:44:45;96280.53;;;25.97;35.53
10978;BME280;5542;48.272;10.794;2022-07-06T08:47:14;96275.72;;;25.76;36.39
10978;BME280;5542;48.272;10.794;2022-07-06T08:49:42;96276.25;;;25.96;36.57
10978;BME280;5542;48.272;10.794;2022-07-06T08:52:09;96283.63;;;26.21;37.95
10978;BME280;5542;48.272;10.794;2022-07-06T08:54:37;96290.94;;;26.81;36.22
10978;BME280;5542;48.272;10.794;2022-07-06T08:57:05;96272.22;;;26.94;33.60
10978;BME280;5542;48.272;10.794;2022-07-06T08:59:32;96285.25;;;27.09;37.43
10978;BME280;5542;48.272;10.794;2022-07-06T09:02:00;96279.44;;;27.45;34.37
10978;BME280;5542;48.272;10.794;2022-07-06T09:04:29;96287.75;;;27.70;35.33
10978;BME280;5542;48.272;10.794;2022-07-06T09:06:57;96279.25;;;27.97;32.93
10978;BME280;5542;48.272;10.794;2022-07-06T09:09:24;96282.22;;;27.66;33.43
10978;BME280;5542;48.272;10.794;2022-07-06T09:11:51;96276.16;;;27.05;31.94
10978;BME280;5542;48.272;10.794;2022-07-06T09:14:18;96292.72;;;27.12;36.42
10978;BME280;5542;48.272;10.794;2022-07-06T09:16:46;96288.78;;;27.48;36.32
10978;BME280;5542;48.272;10.794;2022-07-06T09:19:16;96290.72;;;27.86;36.95
10978;BME280;5542;48.272;10.794;2022-07-06T09:21:43;96289.03;;;28.11;36.24
10978;BME280;5542;48.272;10.794;2022-07-06T09:24:12;96277.94;;;28.03;35.36
10978;BME280;5542;48.272;10.794;2022-07-06T09:26:40;96284.41;;;28.11;34.55
10978;BME280;5542;48.272;10.794;2022-07-06T09:29:07;96289.81;;;28.41;35.24
10978;BME280;5542;48.272;10.794;2022-07-06T09:31:34;96276.50;;;28.27;31.19
10978;BME280;5542;48.272;10.794;2022-07-06T09:34:02;96293.28;;;28.20;32.64
10978;BME280;5542;48.272;10.794;2022-07-06T09:36:43;96287.22;;;28.15;31.80
10978;BME280;5542;48.272;10.794;2022-07-06T09:39:21;96296.41;;;28.01;33.96
10978;BME280;5542;48.272;10.794;2022-07-06T09:41:49;96287.22;;;27.94;33.58
10978;BME280;5542;48.272;10.794;2022-07-06T09:44:23;96291.59;;;28.07;31.72
10978;BME280;5542;48.272;10.794;2022-07-06T09:46:52;96279.88;;;27.94;29.97
10978;BME280;5542;48.272;10.794;2022-07-06T09:49:20;96287.16;;;27.64;32.60
10978;BME280;5542;48.272;10.794;2022-07-06T09:51:50;96288.19;;;27.42;30.33
10978;BME280;5542;48.272;10.794;2022-07-06T09:54:18;96279.16;;;27.29;30.00
10978;BME280;5542;48.272;10.794;2022-07-06T09:56:46;96300.94;;;27.24;33.88
10978;BME280;5542;48.272;10.794;2022-07-06T09:59:17;96293.03;;;27.57;33.40
10978;BME280;5542;48.272;10.794;2022-07-06T10:01:44;96295.16;;;27.90;33.03
10978;BME280;5542;48.272;10.794;2022-07-06T10:04:12;96295.84;;;28.17;32.78
10978;BME280;5542;48.272;10.794;2022-07-06T10:06:39;96282.16;;;28.13;30.40
10978;BME280;5542;48.272;10.794;2022-07-06T10:09:09;96286.75;;;27.92;30.87
10978;BME280;5542;48.272;10.794;2022-07-06T10:11:38;96285.50;;;27.80;28.55
10978;BME280;5542;48.272;10.794;2022-07-06T10:14:06;96284.47;;;27.55;30.08
10978;BME280;5542;48.272;10.794;2022-07-06T10:16:35;96289.22;;;26.86;30.23
10978;BME280;5542;48.272;10.794;2022-07-06T10:19:04;96282.84;;;26.81;31.36
10978;BME280;5542;48.272;10.794;2022-07-06T10:21:31;96290.16;;;26.72;31.31
10978;BME280;5542;48.272;10.794;2022-07-06T10:23:59;96293.19;;;26.88;34.53
10978;BME280;5542;48.272;10.794;2022-07-06T10:26:28;96286.59;;;27.41;34.00
10978;BME280;5542;48.272;10.794;2022-07-06T10:28:58;96277.00;;;27.61;29.00
10978;BME280;5542;48.272;10.794;2022-07-06T10:31:25;96277.22;;;27.39;32.06
10978;BME280;5542;48.272;10.794;2022-07-06T10:33:54;96283.78;;;27.67;30.37
10978;BME280;5542;48.272;10.794;2022-07-06T10:36:22;96279.84;;;28.03;32.39
10978;BME280;5542;48.272;10.794;2022-07-06T10:38:50;96273.34;;;28.25;29.73
10978;BME280;5542;48.272;10.794;2022-07-06T10:41:17;96265.72;;;28.48;27.49
10978;BME280;5542;48.272;10.794;2022-07-06T10:46:16;96277.69;;;27.88;28.26
10978;BME280;5542;48.272;10.794;2022-07-06T10:48:46;96267.44;;;28.02;28.64
10978;BME280;5542;48.272;10.794;2022-07-06T10:51:22;96279.47;;;28.13;28.83
10978;BME280;5542;48.272;10.794;2022-07-06T10:53:56;96273.03;;;28.26;29.46
10978;BME280;5542;48.272;10.794;2022-07-06T10:56:32;96268.69;;;28.34;28.98
10978;BME280;5542;48.272;10.794;2022-07-06T10:59:02;96269.56;;;28.47;28.99
10978;BME280;5542;48.272;10.794;2022-07-06T11:01:30;96255.34;;;28.71;27.79
10978;BME280;5542;48.272;10.794;2022-07-06T11:04:07;96255.03;;;28.72;28.36
10978;BME280;5542;48.272;10.794;2022-07-06T11:06:39;96250.72;;;28.71;28.35
10978;BME280;5542;48.272;10.794;2022-07-06T11:09:07;96260.31;;;28.69;29.13
10978;BME280;5542;48.272;10.794;2022-07-06T11:11:41;96258.31;;;28.57;28.45
10978;BME280;5542;48.272;10.794;2022-07-06T11:14:12;96257.59;;;28.69;30.54
10978;BME280;5542;48.272;10.794;2022-07-06T11:17:03;96268.38;;;28.56;28.52
10978;BME280;5542;48.272;10.794;2022-07-06T11:19:30;96263.34;;;28.67;28.23
10978;BME280;5542;48.272;10.794;2022-07-06T11:21:58;96270.09;;;28.40;29.66
10978;BME280;5542;48.272;10.794;2022-07-06T11:24:32;96269.09;;;28.15;30.52
10978;BME280;5542;48.272;10.794;2022-07-06T11:27:00;96274.38;;;28.12;29.69
10978;BME280;5542;48.272;10.794;2022-07-06T11:29:28;96270.16;;;28.02;30.44
10978;BME280;5542;48.272;10.794;2022-07-06T11:31:56;96263.88;;;28.10;29.76
10978;BME280;5542;48.272;10.794;2022-07-06T11:34:26;96254.94;;;28.18;28.74
10978;BME280;5542;48.272;10.794;2022-07-06T11:36:56;96243.72;;;28.28;29.85
10978;BME280;5542;48.272;10.794;2022-07-06T11:39:26;96240.06;;;28.54;27.94
10978;BME280;5542;48.272;10.794;2022-07-06T11:41:54;96236.44;;;28.50;28.86
10978;BME280;5542;48.272;10.794;2022-07-06T11:44:20;96247.69;;;28.31;28.19
10978;BME280;5542;48.272;10.794;2022-07-06T11:46:48;96247.47;;;28.15;28.18
10978;BME280;5542;48.272;10.794;2022-07-06T11:49:15;96248.91;;;27.92;28.35
10978;BME280;5542;48.272;10.794;2022-07-06T11:51:45;96245.13;;;27.46;29.70
10978;BME280;5542;48.272;10.794;2022-07-06T11:54:14;96251.50;;;27.41;30.56
10978;BME280;5542;48.272;10.794;2022-07-06T11:56:46;96242.09;;;27.39;29.53
10978;BME280;5542;48.272;10.794;2022-07-06T11:59:14;96250.09;;;27.35;29.86
10978;BME280;5542;48.272;10.794;2022-07-06T12:01:41;96246.16;;;27.06;30.29
10978;BME280;5542;48.272;10.794;2022-07-06T12:04:10;96255.41;;;26.88;30.79
10978;BME280;5542;48.272;10.794;2022-07-06T12:06:37;96237.78;;;27.08;30.26
10978;BME280;5542;48.272;10.794;2022-07-06T12:09:05;96241.25;;;27.17;30.94
10978;BME280;5542;48.272;10.794;2022-07-06T12:11:33;96224.25;;;26.99;30.24
10978;BME280;5542;48.272;10.794;2022-07-06T12:14:01;96229.66;;;27.08;29.10
10978;BME280;5542;48.272;10.794;2022-07-06T12:16:29;96225.84;;;26.92;29.92
10978;BME280;5542;48.272;10.794;2022-07-06T12:18:56;96227.28;;;26.98;30.13
10978;BME280;5542;48.272;10.794;2022-07-06T12:21:23;96218.88;;;27.08;30.67
10978;BME280;5542;48.272;10.794;2022-07-06T12:23:52;96203.09;;;27.27;29.44
10978;BME280;5542;48.272;10.794;2022-07-06T12:26:22;96206.38;;;27.42;31.13
10978;BME280;5542;48.272;10.794;2022-07-06T12:28:59;96216.38;;;27.71;29.54
10978;BME280;5542;48.272;10.794;2022-07-06T12:31:34;96208.41;;;27.83;28.60
10978;BME280;5542;48.272;10.794;2022-07-06T12:34:00;96200.91;;;27.89;27.24
10978;BME280;5542;48.272;10.794;2022-07-06T12:36:27;96205.47;;;27.97;27.74
10978;BME280;5542;48.272;10.794;2022-07-06T12:38:54;96203.56;;;27.97;27.96
10978;BME280;5542;48.272;10.794;2022-07-06T12:41:30;96204.09;;;27.82;27.33
10978;BME280;5542;48.272;10.794;2022-07-06T12:44:06;96195.88;;;27.78;28.30
10978;BME280;5542;48.272;10.794;2022-07-06T12:46:35;96204.34;;;27.98;28.61
10978;BME280;5542;48.272;10.794;2022-07-06T12:49:06;96213.84;;;28.04;28.97
10978;BME280;5542;48.272;10.794;2022-07-06T12:51:54;96208.38;;;27.92;28.70
10978;BME280;5542;48.272;10.794;2022-07-06T12:54:23;96207.47;;;27.79;27.78
10978;BME280;5542;48.272;10.794;2022-07-06T12:57:09;96206.75;;;27.61;28.93
10978;BME280;5542;48.272;10.794;2022-07-06T12:59:39;96202.56;;;27.72;27.72
10978;BME280;5542;48.272;10.794;2022-07-06T13:02:07;96202.88;;;27.71;27.79
10978;BME280;5542;48.272;10.794;2022-07-06T13:04:35;96198.44;;;27.75;28.68
10978;BME280;5542;48.272;10.794;2022-07-06T13:07:03;96196.09;;;27.65;28.07